sensor_id;sensor_type;location;lat;lon;timestamp;pressure;altitude;pressure_sealevel;temperature;humidity
8101;BME280;4093;53.470;9.832;2023-04-10T00:00:48;102407.00;;;9.42;85.87
8101;BME280;4093;53.470;9.832;2023-04-10T00:03:22;102402.78;;;9.47;85.47
8101;BME280;4093;53.470;9.832;2023-04-10T00:05:50;102390.34;;;9.19;87.05
8101;BME280;4093;53.470;9.832;2023-04-10T00:08:20;102394.53;;;9.71;85.27
8101;BME280;4093;53.470;9.832;2023-04-10T00:10:48;102386.66;;;9.62;85.28
8101;BME280;4093;53.470;9.832;2023-04-10T00:13:16;102376.75;;;9.32;85.73
8101;BME280;4093;53.470;9.832;2023-04-10T00:15:43;102378.13;;;9.09;88.02
8101;BME280;4093;53.470;9.832;2023-04-10T00:18:12;102374.19;;;9.32;87.39
8101;BME280;4093;53.470;9.832;2023-04-10T00:20:40;102345.56;;;9.15;86.80
8101;BME280;4093;53.470;9.832;2023-04-10T00:23:08;102376.81;;;9.37;87.03
8101;BME280;4093;53.470;9.832;2023-04-10T00:25:36;102378.56;;;9.39;86.67
8101;BME280;4093;53.470;9.832;2023-04-10T00:28:04;102370.66;;;9.27;87.35
8101;BME280;4093;53.470;9.832;2023-04-10T00:30:32;102374.31;;;9.43;86.54
8101;BME280;4093;53.470;9.832;2023-04-10T00:32:59;102377.56;;;9.28;88.06
8101;BME280;4093;53.470;9.832;2023-04-10T00:35:29;102373.38;;;8.80;89.20
8101;BME280;4093;53.470;9.832;2023-04-10T00:37:57;102375.13;;;9.37;87.92
8101;BME280;4093;53.470;9.832;2023-04-10T00:40:25;102367.56;;;9.53;86.59
8101;BME280;4093;53.470;9.832;2023-04-10T00:42:52;102371.69;;;9.38;87.22
8101;BME280;4093;53.470;9.832;2023-04-10T00:45:20;102376.31;;;9.62;87.25
8101;BME280;4093;53.470;9.832;2023-04-10T00:47:48;102363.53;;;9.11;87.99
8101;BME280;4093;53.470;9.832;2023-04-10T00:50:16;102377.88;;;9.49;87.54
8101;BME280;4093;53.470;9.832;2023-04-10T00:52:45;102365.81;;;9.50;86.72
8101;BME280;4093;53.470;9.832;2023-04-10T00:55:13;102361.22;;;9.29;88.27
8101;BME280;4093;53.470;9.832;2023-04-10T00:57:43;102287.91;;;8.57;89.21
8101;BME280;4093;53.470;9.832;2023-04-10T01:00:12;102367.75;;;9.04;90.17
8101;BME280;4093;53.470;9.832;2023-04-10T01:02:40;102355.56;;;9.56;87.50
8101;BME280;4093;53.470;9.832;2023-04-10T01:05:09;102349.94;;;9.22;89.13
8101;BME280;4093;53.470;9.832;2023-04-10T01:07:53;102350.34;;;8.92;89.07
8101;BME280;4093;53.470;9.832;2023-04-10T01:10:29;102362.63;;;9.09;89.82
8101;BME280;4093;53.470;9.832;2023-04-10T01:13:05;102361.13;;;9.23;89.24
8101;BME280;4093;53.470;9.832;2023-04-10T01:15:41;102360.19;;;9.18;88.57
8101;BME280;4093;53.470;9.832;2023-04-10T01:18:17;102356.66;;;9.10;88.43
8101;BME280;4093;53.470;9.832;2023-04-10T01:20:46;102358.22;;;9.01;89.22
8101;BME280;4093;53.470;9.832;2023-04-10T01:26:41;102364.16;;;8.94;89.80
8101;BME280;4093;53.470;9.832;2023-04-10T01:29:17;102358.66;;;8.73;90.11
8101;BME280;4093;53.470;9.832;2023-04-10T01:31:52;102358.66;;;8.73;90.62
8101;BME280;4093;53.470;9.832;2023-04-10T01:34:23;102368.97;;;8.73;91.96
8101;BME280;4093;53.470;9.832;2023-04-10T01:36:54;102356.31;;;8.88;90.57
8101;BME280;4093;53.470;9.832;2023-04-10T01:39:22;102352.72;;;8.78;90.17
8101;BME280;4093;53.470;9.832;2023-04-10T01:41:55;102345.53;;;8.59;91.29
8101;BME280;4093;53.470;9.832;2023-04-10T01:44:28;102333.38;;;8.52;91.23
8101;BME280;4093;53.470;9.832;2023-04-10T01:46:56;102333.91;;;8.34;93.05
8101;BME280;4093;53.470;9.832;2023-04-10T01:49:26;102344.75;;;8.65;91.61
8101;BME280;4093;53.470;9.832;2023-04-10T01:51:55;102334.22;;;8.49;92.51
8101;BME280;4093;53.470;9.832;2023-04-10T01:54:26;102334.97;;;8.44;92.64
8101;BME280;4093;53.470;9.832;2023-04-10T01:56:54;102325.22;;;8.77;90.73
8101;BME280;4093;53.470;9.832;2023-04-10T01:59:22;102326.69;;;8.63;91.20
8101;BME280;4093;53.470;9.832;2023-04-10T02:01:55;102322.50;;;8.68;90.26
8101;BME280;4093;53.470;9.832;2023-04-10T02:04:23;102335.38;;;8.68;91.32
8101;BME280;4093;53.470;9.832;2023-04-10T02:07:01;102322.78;;;8.90;89.46
8101;BME280;4093;53.470;9.832;2023-04-10T02:09:36;102324.31;;;8.75;90.52
8101;BME280;4093;53.470;9.832;2023-04-10T02:12:09;102314.56;;;8.57;90.31
8101;BME280;4093;53.470;9.832;2023-04-10T02:14:41;102320.97;;;8.83;90.56
8101;BME280;4093;53.470;9.832;2023-04-10T02:17:13;102316.56;;;8.75;90.18
8101;BME280;4093;53.470;9.832;2023-04-10T02:19:41;102307.63;;;8.53;91.35
8101;BME280;4093;53.470;9.832;2023-04-10T02:22:11;102307.97;;;8.76;89.23
8101;BME280;4093;53.470;9.832;2023-04-10T02:24:39;102302.53;;;8.56;89.88
8101;BME280;4093;53.470;9.832;2023-04-10T02:27:06;102298.13;;;8.49;91.30
8101;BME280;4093;53.470;9.832;2023-04-10T02:29:34;102293.13;;;8.60;90.36
8101;BME280;4093;53.470;9.832;2023-04-10T02:32:02;102297.84;;;8.87;89.97
8101;BME280;4093;53.470;9.832;2023-04-10T02:34:32;102290.88;;;8.82;89.42
8101;BME280;4093;53.470;9.832;2023-04-10T02:36:59;102248.91;;;8.37;89.91
8101;BME280;4093;53.470;9.832;2023-04-10T02:39:27;102287.16;;;8.63;90.18
8101;BME280;4093;53.470;9.832;2023-04-10T02:41:55;102291.78;;;8.87;89.68
8101;BME280;4093;53.470;9.832;2023-04-10T02:44:22;102283.38;;;8.97;87.91
8101;BME280;4093;53.470;9.832;2023-04-10T02:46:51;102282.25;;;8.79;89.22
8101;BME280;4093;53.470;9.832;2023-04-10T02:49:19;102276.84;;;8.63;89.47
8101;BME280;4093;53.470;9.832;2023-04-10T02:51:48;102282.91;;;8.66;89.99
8101;BME280;4093;53.470;9.832;2023-04-10T02:54:15;102271.88;;;8.75;89.64
8101;BME280;4093;53.470;9.832;2023-04-10T02:56:43;102267.44;;;8.68;89.28
8101;BME280;4093;53.470;9.832;2023-04-10T02:59:11;102260.56;;;8.67;89.05
8101;BME280;4093;53.470;9.832;2023-04-10T03:01:39;102263.75;;;8.50;89.48
8101;BME280;4093;53.470;9.832;2023-04-10T03:04:07;102259.84;;;8.75;88.27
8101;BME280;4093;53.470;9.832;2023-04-10T03:06:35;102254.00;;;8.87;88.02
8101;BME280;4093;53.470;9.832;2023-04-10T03:09:04;102254.78;;;8.82;87.49
8101;BME280;4093;53.470;9.832;2023-04-10T03:11:32;102250.44;;;8.79;88.02
8101;BME280;4093;53.470;9.832;2023-04-10T03:14:01;102244.50;;;8.86;87.53
8101;BME280;4093;53.470;9.832;2023-04-10T03:16:29;102246.19;;;8.81;87.66
8101;BME280;4093;53.470;9.832;2023-04-10T03:18:57;102241.84;;;8.80;88.29
8101;BME280;4093;53.470;9.832;2023-04-10T03:21:24;102239.97;;;8.70;88.48
8101;BME280;4093;53.470;9.832;2023-04-10T03:23:52;102232.25;;;8.70;87.60
8101;BME280;4093;53.470;9.832;2023-04-10T03:26:22;102234.88;;;8.73;87.43
8101;BME280;4093;53.470;9.832;2023-04-10T03:28:50;102236.81;;;8.88;86.51
8101;BME280;4093;53.470;9.832;2023-04-10T03:31:18;102215.91;;;8.71;87.02
8101;BME280;4093;53.470;9.832;2023-04-10T03:33:46;102224.59;;;8.76;87.37
8101;BME280;4093;53.470;9.832;2023-04-10T03:36:14;102211.34;;;8.51;88.23
8101;BME280;4093;53.470;9.832;2023-04-10T03:38:42;102225.41;;;8.72;87.88
8101;BME280;4093;53.470;9.832;2023-04-10T03:41:10;102197.69;;;8.58;87.51
8101;BME280;4093;53.470;9.832;2023-04-10T03:43:39;102216.13;;;8.86;86.75
8101;BME280;4093;53.470;9.832;2023-04-10T03:46:07;102212.69;;;8.84;85.84
8101;BME280;4093;53.470;9.832;2023-04-10T03:48:34;102219.69;;;8.94;86.38
8101;BME280;4093;53.470;9.832;2023-04-10T03:51:02;102214.56;;;8.97;86.05
8101;BME280;4093;53.470;9.832;2023-04-10T03:53:30;102220.69;;;9.06;84.88
8101;BME280;4093;53.470;9.832;2023-04-10T03:56:01;102215.41;;;8.95;86.04
8101;BME280;4093;53.470;9.832;2023-04-10T03:58:29;102209.25;;;8.85;85.93
8101;BME280;4093;53.470;9.832;2023-04-10T04:00:58;102209.25;;;8.85;85.47
8101;BME280;4093;53.470;9.832;2023-04-10T04:03:26;102193.44;;;8.61;86.52
8101;BME280;4093;53.470;9.832;2023-04-10T04:05:54;102200.81;;;8.98;85.71
8101;BME280;4093;53.470;9.832;2023-04-10T04:08:22;102197.13;;;8.78;86.48
8101;BME280;4093;53.470;9.832;2023-04-10T04:10:49;102184.03;;;8.64;85.31
8101;BME280;4093;53.470;9.832;2023-04-10T04:13:17;102195.16;;;8.62;86.43
8101;BME280;4093;53.470;9.832;2023-04-10T04:15:45;102191.94;;;8.76;84.25
8101;BME280;4093;53.470;9.832;2023-04-10T04:18:14;102199.06;;;8.94;85.53
8101;BME280;4093;53.470;9.832;2023-04-10T04:20:42;102189.13;;;8.60;85.39
8101;BME280;4093;53.470;9.832;2023-04-10T04:23:09;102196.47;;;8.94;84.96
8101;BME280;4093;53.470;9.832;2023-04-10T04:25:37;102193.63;;;8.73;84.58
8101;BME280;4093;53.470;9.832;2023-04-10T04:28:05;102188.63;;;8.85;84.39
8101;BME280;4093;53.470;9.832;2023-04-10T04:30:33;102189.28;;;8.70;84.20
8101;BME280;4093;53.470;9.832;2023-04-10T04:33:00;102188.19;;;8.53;85.60
8101;BME280;4093;53.470;9.832;2023-04-10T04:35:29;102192.59;;;8.62;85.28
8101;BME280;4093;53.470;9.832;2023-04-10T04:37:57;102199.59;;;8.69;83.87
8101;BME280;4093;53.470;9.832;2023-04-10T04:40:25;102200.63;;;8.83;83.75
8101;BME280;4093;53.470;9.832;2023-04-10T04:42:53;102197.25;;;8.87;83.60
8101;BME280;4093;53.470;9.832;2023-04-10T04:45:22;102186.84;;;8.81;83.76
8101;BME280;4093;53.470;9.832;2023-04-10T04:47:50;102191.31;;;8.94;83.55
8101;BME280;4093;53.470;9.832;2023-04-10T04:50:18;102190.34;;;8.85;83.95
8101;BME280;4093;53.470;9.832;2023-04-10T04:52:48;102192.00;;;8.81;83.43
8101;BME280;4093;53.470;9.832;2023-04-10T04:55:16;102195.50;;;8.86;83.00
8101;BME280;4093;53.470;9.832;2023-04-10T04:57:43;102196.03;;;9.31;81.45
8101;BME280;4093;53.470;9.832;2023-04-10T05:00:12;102161.34;;;9.04;81.34
8101;BME280;4093;53.470;9.832;2023-04-10T05:02:39;102185.22;;;8.89;82.46
8101;BME280;4093;53.470;9.832;2023-04-10T05:05:08;102206.41;;;9.32;81.21
8101;BME280;4093;53.470;9.832;2023-04-10T05:07:35;102202.31;;;9.49;80.71
8101;BME280;4093;53.470;9.832;2023-04-10T05:10:06;102198.78;;;9.46;80.17
8101;BME280;4093;53.470;9.832;2023-04-10T05:12:33;102199.25;;;9.92;78.56
8101;BME280;4093;53.470;9.832;2023-04-10T05:15:01;102185.97;;;9.55;79.51
8101;BME280;4093;53.470;9.832;2023-04-10T05:17:29;102182.72;;;9.73;78.86
8101;BME280;4093;53.470;9.832;2023-04-10T05:19:57;102189.72;;;9.86;77.94
8101;BME280;4093;53.470;9.832;2023-04-10T05:22:25;102184.59;;;9.88;78.06
8101;BME280;4093;53.470;9.832;2023-04-10T05:24:53;102183.97;;;10.16;77.76
8101;BME280;4093;53.470;9.832;2023-04-10T05:27:23;102192.59;;;10.20;77.06
8101;BME280;4093;53.470;9.832;2023-04-10T05:29:50;102188.66;;;10.71;75.59
8101;BME280;4093;53.470;9.832;2023-04-10T05:32:18;102191.31;;;10.83;75.31
8101;BME280;4093;53.470;9.832;2023-04-10T05:34:46;102184.22;;;10.49;75.87
8101;BME280;4093;53.470;9.832;2023-04-10T05:37:13;102186.19;;;10.99;73.77
8101;BME280;4093;53.470;9.832;2023-04-10T05:39:41;102175.06;;;11.17;73.61
8101;BME280;4093;53.470;9.832;2023-04-10T05:42:09;102176.84;;;11.31;71.72
8101;BME280;4093;53.470;9.832;2023-04-10T05:44:38;102169.19;;;11.97;70.32
8101;BME280;4093;53.470;9.832;2023-04-10T05:47:06;102164.81;;;11.79;69.57
8101;BME280;4093;53.470;9.832;2023-04-10T05:49:34;102165.69;;;12.00;70.14
8101;BME280;4093;53.470;9.832;2023-04-10T05:52:02;102160.47;;;11.55;70.16
8101;BME280;4093;53.470;9.832;2023-04-10T05:54:29;102163.06;;;11.65;70.46
8101;BME280;4093;53.470;9.832;2023-04-10T05:56:57;102143.25;;;11.99;69.32
8101;BME280;4093;53.470;9.832;2023-04-10T05:59:25;102157.03;;;11.76;69.73
8101;BME280;4093;53.470;9.832;2023-04-10T06:01:55;102163.06;;;11.51;72.32
8101;BME280;4093;53.470;9.832;2023-04-10T06:04:23;102157.88;;;11.57;69.75
8101;BME280;4093;53.470;9.832;2023-04-10T06:06:50;102150.13;;;11.66;70.75
8101;BME280;4093;53.470;9.832;2023-04-10T06:09:18;102145.81;;;11.80;70.44
8101;BME280;4093;53.470;9.832;2023-04-10T06:11:46;102135.41;;;12.39;67.60
8101;BME280;4093;53.470;9.832;2023-04-10T06:14:13;102130.91;;;12.88;66.08
8101;BME280;4093;53.470;9.832;2023-04-10T06:16:41;102128.34;;;12.82;65.45
8101;BME280;4093;53.470;9.832;2023-04-10T06:19:11;102121.44;;;12.80;66.71
8101;BME280;4093;53.470;9.832;2023-04-10T06:21:38;102127.25;;;13.28;64.83
8101;BME280;4093;53.470;9.832;2023-04-10T06:24:06;102118.22;;;13.79;63.34
8101;BME280;4093;53.470;9.832;2023-04-10T06:26:36;102110.91;;;13.10;64.91
8101;BME280;4093;53.470;9.832;2023-04-10T06:29:04;102104.31;;;12.20;66.84
8101;BME280;4093;53.470;9.832;2023-04-10T06:31:32;102111.94;;;12.71;66.14
8101;BME280;4093;53.470;9.832;2023-04-10T06:34:00;102099.81;;;12.78;65.80
8101;BME280;4093;53.470;9.832;2023-04-10T06:36:29;102098.53;;;13.49;65.16
8101;BME280;4093;53.470;9.832;2023-04-10T06:38:57;102097.53;;;13.67;63.09
8101;BME280;4093;53.470;9.832;2023-04-10T06:41:24;102094.09;;;13.67;62.91
8101;BME280;4093;53.470;9.832;2023-04-10T06:43:52;102089.63;;;13.82;63.10
8101;BME280;4093;53.470;9.832;2023-04-10T06:46:20;102089.69;;;13.72;63.22
8101;BME280;4093;53.470;9.832;2023-04-10T06:48:48;102088.34;;;14.94;60.59
8101;BME280;4093;53.470;9.832;2023-04-10T06:51:16;102080.34;;;15.07;59.30
8101;BME280;4093;53.470;9.832;2023-04-10T06:53:45;102078.53;;;14.44;60.63
8101;BME280;4093;53.470;9.832;2023-04-10T06:56:13;102079.38;;;14.49;60.68
8101;BME280;4093;53.470;9.832;2023-04-10T06:58:40;102077.28;;;15.37;58.65
8101;BME280;4093;53.470;9.832;2023-04-10T07:01:08;102072.75;;;14.91;59.06
8101;BME280;4093;53.470;9.832;2023-04-10T07:03:36;102080.22;;;15.71;57.83
8101;BME280;4093;53.470;9.832;2023-04-10T07:06:04;102079.38;;;16.19;56.54
8101;BME280;4093;53.470;9.832;2023-04-10T07:08:33;102078.31;;;17.49;53.66
8101;BME280;4093;53.470;9.832;2023-04-10T07:11:02;102064.91;;;16.88;53.47
8101;BME280;4093;53.470;9.832;2023-04-10T07:13:30;102064.72;;;17.69;52.41
8101;BME280;4093;53.470;9.832;2023-04-10T07:15:57;102065.25;;;18.14;51.99
8101;BME280;4093;53.470;9.832;2023-04-10T07:18:26;102061.63;;;17.53;52.78
8101;BME280;4093;53.470;9.832;2023-04-10T07:20:53;102060.25;;;18.38;51.01
8101;BME280;4093;53.470;9.832;2023-04-10T07:23:21;102048.31;;;18.27;49.67
8101;BME280;4093;53.470;9.832;2023-04-10T07:25:49;102043.63;;;19.78;48.38
8101;BME280;4093;53.470;9.832;2023-04-10T07:28:18;102052.81;;;21.90;44.28
8101;BME280;4093;53.470;9.832;2023-04-10T07:30:46;102035.03;;;19.73;45.98
8101;BME280;4093;53.470;9.832;2023-04-10T07:33:13;102044.41;;;20.97;44.16
8101;BME280;4093;53.470;9.832;2023-04-10T07:35:42;102033.56;;;20.38;45.83
8101;BME280;4093;53.470;9.832;2023-04-10T07:38:11;102030.56;;;21.77;43.92
8101;BME280;4093;53.470;9.832;2023-04-10T07:40:38;102024.56;;;22.33;42.67
8101;BME280;4093;53.470;9.832;2023-04-10T07:43:06;102025.84;;;22.44;42.49
8101;BME280;4093;53.470;9.832;2023-04-10T07:45:35;102020.84;;;22.18;42.41
8101;BME280;4093;53.470;9.832;2023-04-10T07:48:06;102022.91;;;23.41;41.11
8101;BME280;4093;53.470;9.832;2023-04-10T07:50:34;102008.59;;;22.36;41.54
8101;BME280;4093;53.470;9.832;2023-04-10T07:53:01;102006.91;;;22.35;40.65
8101;BME280;4093;53.470;9.832;2023-04-10T07:55:36;102003.88;;;22.62;41.01
8101;BME280;4093;53.470;9.832;2023-04-10T07:58:04;102022.19;;;21.05;43.92
8101;BME280;4093;53.470;9.832;2023-04-10T08:00:32;101993.91;;;23.05;40.92
8101;BME280;4093;53.470;9.832;2023-04-10T08:03:02;102008.19;;;22.27;41.88
8101;BME280;4093;53.470;9.832;2023-04-10T08:05:31;102013.47;;;21.24;43.17
8101;BME280;4093;53.470;9.832;2023-04-10T08:07:58;102020.66;;;20.55;44.88
8101;BME280;4093;53.470;9.832;2023-04-10T08:10:26;102006.88;;;20.01;44.55
8101;BME280;4093;53.470;9.832;2023-04-10T08:12:54;102009.53;;;21.57;42.77
8101;BME280;4093;53.470;9.832;2023-04-10T08:15:22;102007.63;;;21.60;42.48
8101;BME280;4093;53.470;9.832;2023-04-10T08:17:49;102005.56;;;21.46;43.05
8101;BME280;4093;53.470;9.832;2023-04-10T08:20:19;101996.41;;;21.76;42.75
8101;BME280;4093;53.470;9.832;2023-04-10T08:22:47;102001.78;;;22.51;42.24
8101;BME280;4093;53.470;9.832;2023-04-10T08:25:15;101988.19;;;22.59;40.67
8101;BME280;4093;53.470;9.832;2023-04-10T08:27:42;101989.56;;;20.66;43.48
8101;BME280;4093;53.470;9.832;2023-04-10T08:30:10;101995.09;;;20.59;43.70
8101;BME280;4093;53.470;9.832;2023-04-10T08:32:38;101993.41;;;20.58;43.25
8101;BME280;4093;53.470;9.832;2023-04-10T08:35:07;101990.47;;;21.91;42.24
8101;BME280;4093;53.470;9.832;2023-04-10T08:37:36;101988.03;;;24.34;38.28
8101;BME280;4093;53.470;9.832;2023-04-10T08:40:05;101975.22;;;22.73;40.19
8101;BME280;4093;53.470;9.832;2023-04-10T08:42:33;101977.44;;;23.00;40.24
8101;BME280;4093;53.470;9.832;2023-04-10T08:45:01;101980.97;;;24.51;38.17
8101;BME280;4093;53.470;9.832;2023-04-10T08:47:34;101981.19;;;26.52;36.02
8101;BME280;4093;53.470;9.832;2023-04-10T08:50:06;101973.59;;;23.42;38.16
8101;BME280;4093;53.470;9.832;2023-04-10T08:52:42;101970.41;;;23.18;38.80
8101;BME280;4093;53.470;9.832;2023-04-10T08:55:12;101975.75;;;23.51;39.43
8101;BME280;4093;53.470;9.832;2023-04-10T08:57:41;101964.03;;;24.06;38.66
8101;BME280;4093;53.470;9.832;2023-04-10T09:00:23;101962.34;;;27.10;33.40
8101;BME280;4093;53.470;9.832;2023-04-10T09:02:53;101944.41;;;26.61;33.60
8101;BME280;4093;53.470;9.832;2023-04-10T09:05:26;101959.06;;;24.79;36.02
8101;BME280;4093;53.470;9.832;2023-04-10T09:07:55;101956.28;;;21.89;38.91
8101;BME280;4093;53.470;9.832;2023-04-10T09:10:23;101960.16;;;23.62;38.23
8101;BME280;4093;53.470;9.832;2023-04-10T09:12:51;101959.59;;;24.38;36.65
8101;BME280;4093;53.470;9.832;2023-04-10T09:15:19;101948.50;;;22.98;37.00
8101;BME280;4093;53.470;9.832;2023-04-10T09:17:57;101941.97;;;22.88;37.61
8101;BME280;4093;53.470;9.832;2023-04-10T09:20:26;101954.13;;;22.18;38.86
8101;BME280;4093;53.470;9.832;2023-04-10T09:22:56;101950.16;;;20.87;41.33
8101;BME280;4093;53.470;9.832;2023-04-10T09:25:29;101945.78;;;19.23;44.53
8101;BME280;4093;53.470;9.832;2023-04-10T09:28:02;101958.84;;;18.69;45.33
8101;BME280;4093;53.470;9.832;2023-04-10T09:30:34;101950.22;;;19.21;44.98
8101;BME280;4093;53.470;9.832;2023-04-10T09:33:02;101943.53;;;19.12;45.65
8101;BME280;4093;53.470;9.832;2023-04-10T09:35:47;101946.59;;;19.50;44.97
8101;BME280;4093;53.470;9.832;2023-04-10T09:38:18;101900.56;;;19.16;45.52
8101;BME280;4093;53.470;9.832;2023-04-10T09:40:47;101922.53;;;19.62;45.18
8101;BME280;4093;53.470;9.832;2023-04-10T09:43:19;101912.16;;;19.84;45.59
8101;BME280;4093;53.470;9.832;2023-04-10T09:45:49;101897.91;;;18.91;45.40
8101;BME280;4093;53.470;9.832;2023-04-10T09:48:17;101908.31;;;19.44;45.42
8101;BME280;4093;53.470;9.832;2023-04-10T09:50:45;101894.44;;;19.66;43.91
8101;BME280;4093;53.470;9.832;2023-04-10T09:53:16;101906.22;;;19.29;45.07
8101;BME280;4093;53.470;9.832;2023-04-10T09:55:46;101877.66;;;19.21;44.04
8101;BME280;4093;53.470;9.832;2023-04-10T09:58:15;101890.53;;;19.27;44.40
8101;BME280;4093;53.470;9.832;2023-04-10T10:00:45;101887.59;;;19.36;43.66
8101;BME280;4093;53.470;9.832;2023-04-10T10:03:15;101895.78;;;18.49;44.71
8101;BME280;4093;53.470;9.832;2023-04-10T10:05:45;101871.94;;;19.10;43.72
8101;BME280;4093;53.470;9.832;2023-04-10T10:08:14;101873.69;;;19.09;42.90
8101;BME280;4093;53.470;9.832;2023-04-10T10:10:45;101873.19;;;19.48;44.75
8101;BME280;4093;53.470;9.832;2023-04-10T10:13:15;101865.50;;;18.93;42.96
8101;BME280;4093;53.470;9.832;2023-04-10T10:15:48;101853.28;;;20.11;43.67
8101;BME280;4093;53.470;9.832;2023-04-10T10:18:23;101853.34;;;19.88;43.53
8101;BME280;4093;53.470;9.832;2023-04-10T10:20:52;101849.28;;;19.07;43.24
8101;BME280;4093;53.470;9.832;2023-04-10T10:23:22;101841.56;;;19.51;42.91
8101;BME280;4093;53.470;9.832;2023-04-10T10:25:51;101851.75;;;19.84;43.50
8101;BME280;4093;53.470;9.832;2023-04-10T10:28:20;101850.06;;;20.27;42.77
8101;BME280;4093;53.470;9.832;2023-04-10T10:30:47;101831.78;;;20.02;41.29
8101;BME280;4093;53.470;9.832;2023-04-10T10:33:17;101828.16;;;20.06;42.00
8101;BME280;4093;53.470;9.832;2023-04-10T10:35:45;101806.13;;;19.86;41.57
8101;BME280;4093;53.470;9.832;2023-04-10T10:38:13;101825.50;;;19.60;42.04
8101;BME280;4093;53.470;9.832;2023-04-10T10:40:50;101810.31;;;19.22;42.20
8101;BME280;4093;53.470;9.832;2023-04-10T10:43:26;101819.22;;;19.41;40.78
8101;BME280;4093;53.470;9.832;2023-04-10T10:46:01;101807.00;;;19.65;41.77
8101;BME280;4093;53.470;9.832;2023-04-10T10:48:29;101789.41;;;19.89;41.32
8101;BME280;4093;53.470;9.832;2023-04-10T10:50:58;101793.72;;;19.45;41.89
8101;BME280;4093;53.470;9.832;2023-04-10T10:53:31;101789.78;;;20.02;40.86
8101;BME280;4093;53.470;9.832;2023-04-10T10:56:32;101780.53;;;19.93;40.20
8101;BME280;4093;53.470;9.832;2023-04-10T10:59:00;101770.13;;;19.68;39.58
8101;BME280;4093;53.470;9.832;2023-04-10T11:01:28;101773.94;;;19.59;40.19
8101;BME280;4093;53.470;9.832;2023-04-10T11:03:56;101763.53;;;20.02;39.79
8101;BME280;4093;53.470;9.832;2023-04-10T11:06:48;101752.28;;;19.98;39.00
8101;BME280;4093;53.470;9.832;2023-04-10T11:09:51;101754.69;;;19.82;40.11
8101;BME280;4093;53.470;9.832;2023-04-10T11:12:21;101750.13;;;20.91;38.75
8101;BME280;4093;53.470;9.832;2023-04-10T11:14:57;101742.38;;;20.47;38.63
8101;BME280;4093;53.470;9.832;2023-04-10T11:17:48;101739.16;;;20.41;38.52
8101;BME280;4093;53.470;9.832;2023-04-10T11:20:17;101713.66;;;19.80;39.40
8101;BME280;4093;53.470;9.832;2023-04-10T11:23:06;101723.28;;;20.64;39.23
8101;BME280;4093;53.470;9.832;2023-04-10T11:25:48;101706.03;;;20.37;38.52
8101;BME280;4093;53.470;9.832;2023-04-10T11:28:38;101710.69;;;20.09;39.48
8101;BME280;4093;53.470;9.832;2023-04-10T11:31:16;101716.09;;;20.88;38.32
8101;BME280;4093;53.470;9.832;2023-04-10T11:33:46;101697.81;;;20.03;38.93
8101;BME280;4093;53.470;9.832;2023-04-10T11:36:14;101690.94;;;19.79;39.94
8101;BME280;4093;53.470;9.832;2023-04-10T11:38:54;101697.72;;;20.47;39.18
8101;BME280;4093;53.470;9.832;2023-04-10T11:41:25;101686.28;;;20.69;40.13
8101;BME280;4093;53.470;9.832;2023-04-10T11:43:55;101677.72;;;19.82;39.01
8101;BME280;4093;53.470;9.832;2023-04-10T11:46:23;101710.03;;;19.60;38.76
8101;BME280;4093;53.470;9.832;2023-04-10T11:48:52;101695.28;;;19.80;39.83
8101;BME280;4093;53.470;9.832;2023-04-10T11:51:20;101678.66;;;20.42;39.11
8101;BME280;4093;53.470;9.832;2023-04-10T11:53:48;101684.94;;;20.79;37.85
8101;BME280;4093;53.470;9.832;2023-04-10T11:56:17;101674.22;;;21.02;38.04
8101;BME280;4093;53.470;9.832;2023-04-10T11:58:48;101662.56;;;20.89;37.48
8101;BME280;4093;53.470;9.832;2023-04-10T12:01:21;101652.00;;;20.10;37.10
8101;BME280;4093;53.470;9.832;2023-04-10T12:03:49;101653.69;;;20.11;37.67
8101;BME280;4093;53.470;9.832;2023-04-10T12:06:17;101650.72;;;19.78;37.15
8101;BME280;4093;53.470;9.832;2023-04-10T12:08:47;101649.75;;;19.81;37.85
8101;BME280;4093;53.470;9.832;2023-04-10T12:11:17;101649.84;;;20.00;38.40
8101;BME280;4093;53.470;9.832;2023-04-10T12:13:47;101647.50;;;19.28;38.16
8101;BME280;4093;53.470;9.832;2023-04-10T12:16:15;101654.38;;;19.96;37.78
8101;BME280;4093;53.470;9.832;2023-04-10T12:18:44;101642.25;;;19.72;37.78
8101;BME280;4093;53.470;9.832;2023-04-10T12:21:12;101633.34;;;20.17;38.29
8101;BME280;4093;53.470;9.832;2023-04-10T12:23:41;101626.38;;;20.36;37.72
8101;BME280;4093;53.470;9.832;2023-04-10T12:26:13;101627.22;;;20.37;38.50
8101;BME280;4093;53.470;9.832;2023-04-10T12:28:49;101613.41;;;19.72;37.06
8101;BME280;4093;53.470;9.832;2023-04-10T12:31:17;101637.13;;;20.50;37.60
8101;BME280;4093;53.470;9.832;2023-04-10T12:33:46;101612.75;;;20.67;36.51
8101;BME280;4093;53.470;9.832;2023-04-10T12:36:20;101618.06;;;21.22;36.12
8101;BME280;4093;53.470;9.832;2023-04-10T12:38:48;101603.16;;;20.06;37.63
8101;BME280;4093;53.470;9.832;2023-04-10T12:41:20;101608.59;;;20.22;37.78
8101;BME280;4093;53.470;9.832;2023-04-10T12:43:48;101608.06;;;20.34;36.81
8101;BME280;4093;53.470;9.832;2023-04-10T12:46:22;101604.22;;;20.42;37.99
8101;BME280;4093;53.470;9.832;2023-04-10T12:48:52;101595.34;;;20.25;38.47
8101;BME280;4093;53.470;9.832;2023-04-10T12:51:40;101606.16;;;20.18;38.15
8101;BME280;4093;53.470;9.832;2023-04-10T12:54:08;101604.16;;;20.64;37.63
8101;BME280;4093;53.470;9.832;2023-04-10T12:56:40;101591.09;;;20.62;37.58
8101;BME280;4093;53.470;9.832;2023-04-10T12:59:08;101597.41;;;20.38;37.80
8101;BME280;4093;53.470;9.832;2023-04-10T13:01:36;101571.91;;;20.00;37.88
8101;BME280;4093;53.470;9.832;2023-04-10T13:04:06;101583.88;;;20.47;37.92
8101;BME280;4093;53.470;9.832;2023-04-10T13:06:41;101561.19;;;20.44;37.62
8101;BME280;4093;53.470;9.832;2023-04-10T13:09:09;101580.19;;;20.30;38.23
8101;BME280;4093;53.470;9.832;2023-04-10T13:11:37;101556.06;;;20.22;38.17
8101;BME280;4093;53.470;9.832;2023-04-10T13:14:04;101550.88;;;20.40;38.77
8101;BME280;4093;53.470;9.832;2023-04-10T13:16:32;101544.75;;;19.81;39.12
8101;BME280;4093;53.470;9.832;2023-04-10T13:19:00;101541.84;;;20.07;39.30
8101;BME280;4093;53.470;9.832;2023-04-10T13:21:29;101549.75;;;19.87;38.30
8101;BME280;4093;53.470;9.832;2023-04-10T13:23:57;101547.44;;;20.58;38.29
8101;BME280;4093;53.470;9.832;2023-04-10T13:26:25;101543.00;;;21.15;38.75
8101;BME280;4093;53.470;9.832;2023-04-10T13:28:52;101524.59;;;20.21;38.83
8101;BME280;4093;53.470;9.832;2023-04-10T13:31:21;101530.50;;;20.26;39.50